航空気象通報

ウインドサーファーのための航空気象通報による風予報です。

1/1の航空気象通報(国内)

2007年12月31日 18時35分26秒 | TAF
羽田空港
TAF RJTT 310844Z 311812 27010KT 9999 FEW030
BECMG 0003 20004KT
BECMG 0609 36008KT
日本時間1日03-09時:270度から10ノットの風
09-12時:風が変化
12-15時:200度から4ノットの風
15-18時:風が変化
18-21時:360度から8ノットの風


那覇空港
TAF ROAH 310839Z 311812 35020KT 9999 FEW035 SCT045
日本時間1日03-21時:350度から20ノットの風
コメント

12/30-31の航空気象通報(国内、海外)

2007年12月30日 21時41分57秒 | TAF
羽田空港
TAF RJTT 300847Z 301812 25014KT 9999 FEW030
BECMG 2124 23016KT
TEMPO 0612 23020G30KT
日本時間31日03-06時:250度から14ノットの風
06-09時:風が変化
09-21時:230度から16ノットの風
但し、15-21時:一時、230度から20ノット、突風30ノット


那覇空港
TAF ROAH 300844Z 301812 35017KT 9999 FEW030 BKN045
日本時間31日03-21時:350度から17ノットの風


マウイのカフルイ空港
PHOG 301135Z 301212 14006KT P6SM FEW040 BKN200
FM2000 03010KT P6SM SCT050 BKN200
FM0600 14006KT P6SM FEW040 BKN200
ハワイ時間30日02-10時:140度から6ノットの風
10-20時:030度から10ノットの風
20時-31日02時:140度から6ノットの風


サイパン空港
PGSN 301120Z 301212 10007KT P6SM VCSH FEW020
マリアナ時間30日22時-31日22時:100度から7ノットの風


グアム空港
TAFPQ TAF PGUM 301120Z 301212 10006KT P6SM VCSH FEW025
マリアナ時間30日22時-31日22時:100度から6ノットの風
コメント

12/28-29の航空気象通報(国内、海外)

2007年12月28日 23時17分32秒 | TAF
羽田空港
TAF RJTT 280856Z 281812 31014KT 4000 -SHRA BR FEW008 SCT015 BKN020
TEMPO 1824 2000 TSRA BR FEW005 BKN008 BKN020 FEW020CB
TEMPO 0003 3000 SHRA BR
BECMG 0306 6000 NSW
日本時間29日03-21時:310度から14ノットの風
、12-15時ののち、

那覇空港
TAF ROAH 280840Z 281812 36016KT 9999 FEW020 SCT045
日本時間29日03-21時:360度から16ノットの風


マウイのカフルイ空港
PHOG 281120Z 281212 06010KT P6SM FEW050 BKN250
FM1900 06018G26KT P6SM SCT050 BKN250
ハワイ時間28日02-09時:060度から10ノットの風
09時-29日02時:060度から18ノット、突風26ノット


サイパン空港
PGSN 281120Z 281212 08011KT P6SM VCSH SCT030
マリアナ時間28日22時-29日22時:080度から11ノットの風


グアム空港
TAFPQ TAF PGUM 281120Z 281212 08009KT P6SM VCSH SCT025
マリアナ時間28日22時-29日22時:080度から9ノットの風

コメント

12/27-28の航空気象通報(国内、海外)

2007年12月27日 22時02分57秒 | TAF
羽田空港
TAF RJTT 270849Z 271812 35007KT 9000 FEW020 SCT050
TEMPO 0912 4000 RA BR
日本時間28日03-21時:350度から7ノットの風
、但し、18-21時:一時、

那覇空港
TAF AMD ROAH 271145Z 271812 31010KT 9999 FEW015 SCT020
日本時間28日03-21時:310度から10ノットの風


マウイのカフルイ空港
PHOG 271123Z 271212 05015G25KT P6SM VCSH SCT050 OVC250
TEMPO 1216 -SHRA BKN025
FM1900 05018G26KT P6SM SCT060 OVC250
ハワイ時間27日02-09時:050度から15ノット、突風25ノット
09時-28日02時:050度から18ノット、突風26ノット
、但し、27日02-06時:一時、

サイパン空港
PGSN 271121Z 271212 08011KT P6SM VCSH SCT030
マリアナ時間27日22時-28日22時:080度から11ノットの風


グアム空港
TAFPQ TAF PGUM 271121Z 271212 08011KT P6SM VCSH SCT020 BKN080
TEMPO 1216 09012G20KT 5SM -SHRA BKN020
マリアナ時間27日22時-28日22時:080度から11ノットの風

但し、27日22時-28日02時:一時、090度から12ノット、突風20ノット、
コメント

12/26-27の航空気象通報(国内、海外)

2007年12月27日 00時05分28秒 | TAF
羽田空港
TAF RJTT 260840Z 261812 36008KT 9999 FEW030
BECMG 0306 07006KT
BECMG 0912 02006KT
日本時間27日03-12時:360度から8ノットの風
12-15時:風が変化
15-18時:070度から6ノットの風
18-21時:風が変化
21時:020度から6ノットの風


那覇空港
TAF ROAH 260835Z 261812 06004KT 9999 FEW020 SCT045
BECMG 0003 18008KT
日本時間27日03-09時:060度から4ノットの風
09-12時:風が変化
12-21時:180度から8ノットの風


マウイのカフルイ空港
PHOG 261120Z 261212 05013G20KT P6SM VCSH SCT050
TEMPO 1214 -SHRA BKN035
FM1900 05018G27KT P6SM SCT050
ハワイ時間26日02-09時:050度から13ノット、突風20ノット
09時-27日02時:050度から18ノット、突風27ノット
、但し、26日02-04時:一時、

サイパン空港
PGSN 261122Z 261212 08008KT P6SM VCSH FEW025 SCT070
マリアナ時間26日22時-27日22時:080度から8ノットの風


グアム空港
TAFPQ TAF PGUM 261122Z 261212 08008KT P6SM VCSH FEW025 SCT070
マリアナ時間26日22時-27日22時:080度から8ノットの風

コメント